sensor_id;sensor_type;location;lat;lon;timestamp;P1;durP1;ratioP1;P2;durP2;ratioP2
12880;SDS011;6508;53.786;9.996;2023-08-06T00:00:19;3.10;;;2.90;;
12880;SDS011;6508;53.786;9.996;2023-08-06T00:02:47;3.38;;;2.92;;
12880;SDS011;6508;53.786;9.996;2023-08-06T00:05:15;2.80;;;2.70;;
12880;SDS011;6508;53.786;9.996;2023-08-06T00:07:44;3.00;;;2.80;;
12880;SDS011;6508;53.786;9.996;2023-08-06T00:10:12;3.42;;;3.22;;
12880;SDS011;6508;53.786;9.996;2023-08-06T00:12:39;3.50;;;2.97;;
12880;SDS011;6508;53.786;9.996;2023-08-06T00:15:08;3.13;;;2.92;;
12880;SDS011;6508;53.786;9.996;2023-08-06T00:17:37;2.90;;;2.70;;
12880;SDS011;6508;53.786;9.996;2023-08-06T00:20:05;3.25;;;2.70;;
12880;SDS011;6508;53.786;9.996;2023-08-06T00:22:34;3.17;;;2.85;;
12880;SDS011;6508;53.786;9.996;2023-08-06T00:25:02;3.00;;;2.80;;
12880;SDS011;6508;53.786;9.996;2023-08-06T00:27:31;3.70;;;2.85;;
12880;SDS011;6508;53.786;9.996;2023-08-06T00:29:59;3.03;;;2.70;;
12880;SDS011;6508;53.786;9.996;2023-08-06T00:32:28;3.03;;;2.83;;
12880;SDS011;6508;53.786;9.996;2023-08-06T00:34:57;3.13;;;2.92;;
12880;SDS011;6508;53.786;9.996;2023-08-06T00:37:24;2.97;;;2.78;;
12880;SDS011;6508;53.786;9.996;2023-08-06T00:39:52;3.20;;;3.00;;
12880;SDS011;6508;53.786;9.996;2023-08-06T00:42:20;4.15;;;3.00;;
12880;SDS011;6508;53.786;9.996;2023-08-06T00:44:49;3.45;;;3.25;;
12880;SDS011;6508;53.786;9.996;2023-08-06T00:47:17;3.28;;;3.08;;
12880;SDS011;6508;53.786;9.996;2023-08-06T00:49:45;3.42;;;3.15;;
12880;SDS011;6508;53.786;9.996;2023-08-06T00:52:14;3.15;;;2.95;;
12880;SDS011;6508;53.786;9.996;2023-08-06T00:54:43;3.58;;;3.28;;
12880;SDS011;6508;53.786;9.996;2023-08-06T00:57:10;3.85;;;3.00;;
12880;SDS011;6508;53.786;9.996;2023-08-06T00:59:38;5.22;;;2.70;;
12880;SDS011;6508;53.786;9.996;2023-08-06T01:02:07;3.33;;;3.03;;
12880;SDS011;6508;53.786;9.996;2023-08-06T01:04:35;3.70;;;3.40;;
12880;SDS011;6508;53.786;9.996;2023-08-06T01:07:05;3.80;;;3.40;;
12880;SDS011;6508;53.786;9.996;2023-08-06T01:09:40;3.47;;;3.05;;
12880;SDS011;6508;53.786;9.996;2023-08-06T01:12:09;3.80;;;3.50;;
12880;SDS011;6508;53.786;9.996;2023-08-06T01:14:44;3.67;;;3.38;;
12880;SDS011;6508;53.786;9.996;2023-08-06T01:17:14;3.47;;;3.28;;
12880;SDS011;6508;53.786;9.996;2023-08-06T01:19:42;3.20;;;3.00;;
12880;SDS011;6508;53.786;9.996;2023-08-06T01:22:11;5.57;;;3.92;;
12880;SDS011;6508;53.786;9.996;2023-08-06T01:24:38;5.43;;;3.30;;
12880;SDS011;6508;53.786;9.996;2023-08-06T01:27:08;4.68;;;3.38;;
12880;SDS011;6508;53.786;9.996;2023-08-06T01:29:39;4.32;;;3.95;;
12880;SDS011;6508;53.786;9.996;2023-08-06T01:32:09;4.18;;;3.88;;
12880;SDS011;6508;53.786;9.996;2023-08-06T01:34:39;4.03;;;3.72;;
12880;SDS011;6508;53.786;9.996;2023-08-06T01:37:10;3.90;;;3.60;;
12880;SDS011;6508;53.786;9.996;2023-08-06T01:39:39;4.05;;;3.75;;
12880;SDS011;6508;53.786;9.996;2023-08-06T01:42:07;3.97;;;3.67;;
12880;SDS011;6508;53.786;9.996;2023-08-06T01:44:35;4.07;;;3.78;;
12880;SDS011;6508;53.786;9.996;2023-08-06T01:47:04;4.00;;;3.70;;
12880;SDS011;6508;53.786;9.996;2023-08-06T01:49:32;4.40;;;4.00;;
12880;SDS011;6508;53.786;9.996;2023-08-06T01:51:59;4.82;;;4.05;;
12880;SDS011;6508;53.786;9.996;2023-08-06T01:54:29;4.28;;;3.97;;
12880;SDS011;6508;53.786;9.996;2023-08-06T01:56:56;3.78;;;3.42;;
12880;SDS011;6508;53.786;9.996;2023-08-06T01:59:25;3.85;;;3.47;;
12880;SDS011;6508;53.786;9.996;2023-08-06T02:01:54;3.95;;;3.60;;
12880;SDS011;6508;53.786;9.996;2023-08-06T02:04:22;4.13;;;3.72;;
12880;SDS011;6508;53.786;9.996;2023-08-06T02:06:50;3.75;;;3.45;;
12880;SDS011;6508;53.786;9.996;2023-08-06T02:09:18;4.82;;;4.30;;
12880;SDS011;6508;53.786;9.996;2023-08-06T02:11:47;4.90;;;4.50;;
12880;SDS011;6508;53.786;9.996;2023-08-06T02:14:16;4.78;;;4.38;;
12880;SDS011;6508;53.786;9.996;2023-08-06T02:16:44;4.88;;;4.47;;
12880;SDS011;6508;53.786;9.996;2023-08-06T02:19:11;5.03;;;4.53;;
12880;SDS011;6508;53.786;9.996;2023-08-06T02:21:39;5.03;;;4.63;;
12880;SDS011;6508;53.786;9.996;2023-08-06T02:24:07;4.80;;;4.18;;
12880;SDS011;6508;53.786;9.996;2023-08-06T02:26:35;5.68;;;4.90;;
12880;SDS011;6508;53.786;9.996;2023-08-06T02:29:04;4.70;;;4.25;;
12880;SDS011;6508;53.786;9.996;2023-08-06T02:31:32;7.55;;;4.80;;
12880;SDS011;6508;53.786;9.996;2023-08-06T02:33:59;4.57;;;4.22;;
12880;SDS011;6508;53.786;9.996;2023-08-06T02:36:27;4.68;;;4.28;;
12880;SDS011;6508;53.786;9.996;2023-08-06T02:38:58;5.18;;;4.75;;
12880;SDS011;6508;53.786;9.996;2023-08-06T02:41:26;5.65;;;4.25;;
12880;SDS011;6508;53.786;9.996;2023-08-06T02:43:56;4.40;;;3.85;;
12880;SDS011;6508;53.786;9.996;2023-08-06T02:46:25;8.23;;;4.68;;
12880;SDS011;6508;53.786;9.996;2023-08-06T02:48:53;5.03;;;4.40;;
12880;SDS011;6508;53.786;9.996;2023-08-06T02:51:21;5.15;;;4.63;;
12880;SDS011;6508;53.786;9.996;2023-08-06T02:53:49;4.78;;;4.38;;
12880;SDS011;6508;53.786;9.996;2023-08-06T02:56:19;4.95;;;4.55;;
12880;SDS011;6508;53.786;9.996;2023-08-06T02:59:05;4.88;;;4.47;;
12880;SDS011;6508;53.786;9.996;2023-08-06T03:01:45;4.78;;;4.28;;
12880;SDS011;6508;53.786;9.996;2023-08-06T03:04:19;7.95;;;4.32;;
12880;SDS011;6508;53.786;9.996;2023-08-06T03:06:48;5.30;;;4.60;;
12880;SDS011;6508;53.786;9.996;2023-08-06T03:09:18;8.20;;;4.50;;
12880;SDS011;6508;53.786;9.996;2023-08-06T03:11:47;4.60;;;4.20;;
12880;SDS011;6508;53.786;9.996;2023-08-06T03:14:15;5.88;;;5.38;;
12880;SDS011;6508;53.786;9.996;2023-08-06T03:16:45;5.03;;;4.13;;
12880;SDS011;6508;53.786;9.996;2023-08-06T03:19:16;6.13;;;4.20;;
12880;SDS011;6508;53.786;9.996;2023-08-06T03:21:44;6.60;;;4.10;;
12880;SDS011;6508;53.786;9.996;2023-08-06T03:24:13;6.68;;;4.35;;
12880;SDS011;6508;53.786;9.996;2023-08-06T03:26:43;4.35;;;3.90;;
12880;SDS011;6508;53.786;9.996;2023-08-06T03:29:11;4.50;;;3.63;;
12880;SDS011;6508;53.786;9.996;2023-08-06T03:31:40;6.95;;;4.40;;
12880;SDS011;6508;53.786;9.996;2023-08-06T03:34:09;4.68;;;3.78;;
12880;SDS011;6508;53.786;9.996;2023-08-06T03:36:37;6.13;;;3.38;;
12880;SDS011;6508;53.786;9.996;2023-08-06T03:39:06;3.88;;;3.47;;
12880;SDS011;6508;53.786;9.996;2023-08-06T03:41:33;4.55;;;3.67;;
12880;SDS011;6508;53.786;9.996;2023-08-06T03:44:01;4.53;;;4.13;;
12880;SDS011;6508;53.786;9.996;2023-08-06T03:46:30;4.10;;;3.80;;
12880;SDS011;6508;53.786;9.996;2023-08-06T03:49:02;7.55;;;4.30;;
12880;SDS011;6508;53.786;9.996;2023-08-06T03:51:31;4.68;;;3.80;;
12880;SDS011;6508;53.786;9.996;2023-08-06T03:54:00;4.20;;;3.83;;
12880;SDS011;6508;53.786;9.996;2023-08-06T03:56:29;4.30;;;3.92;;
12880;SDS011;6508;53.786;9.996;2023-08-06T03:58:56;4.38;;;3.97;;
12880;SDS011;6508;53.786;9.996;2023-08-06T04:01:24;3.75;;;3.45;;
12880;SDS011;6508;53.786;9.996;2023-08-06T04:03:52;4.25;;;3.85;;
12880;SDS011;6508;53.786;9.996;2023-08-06T04:06:20;4.40;;;3.85;;
12880;SDS011;6508;53.786;9.996;2023-08-06T04:08:49;5.05;;;3.75;;
12880;SDS011;6508;53.786;9.996;2023-08-06T04:11:17;6.05;;;4.13;;
12880;SDS011;6508;53.786;9.996;2023-08-06T04:13:45;4.30;;;3.88;;
12880;SDS011;6508;53.786;9.996;2023-08-06T04:16:12;4.47;;;4.07;;
12880;SDS011;6508;53.786;9.996;2023-08-06T04:18:41;8.10;;;3.88;;
12880;SDS011;6508;53.786;9.996;2023-08-06T04:21:09;5.90;;;3.53;;
12880;SDS011;6508;53.786;9.996;2023-08-06T04:23:36;4.47;;;3.70;;
12880;SDS011;6508;53.786;9.996;2023-08-06T04:26:07;4.28;;;3.47;;
12880;SDS011;6508;53.786;9.996;2023-08-06T04:28:37;5.15;;;3.72;;
12880;SDS011;6508;53.786;9.996;2023-08-06T04:31:05;4.38;;;3.97;;
12880;SDS011;6508;53.786;9.996;2023-08-06T04:33:33;6.63;;;3.80;;
12880;SDS011;6508;53.786;9.996;2023-08-06T04:36:06;6.65;;;4.03;;
12880;SDS011;6508;53.786;9.996;2023-08-06T04:38:34;7.68;;;4.45;;
12880;SDS011;6508;53.786;9.996;2023-08-06T04:41:02;4.63;;;3.50;;
12880;SDS011;6508;53.786;9.996;2023-08-06T04:43:32;3.50;;;3.25;;
12880;SDS011;6508;53.786;9.996;2023-08-06T04:45:59;5.25;;;3.88;;
12880;SDS011;6508;53.786;9.996;2023-08-06T04:48:28;5.18;;;4.07;;
12880;SDS011;6508;53.786;9.996;2023-08-06T04:50:55;5.28;;;4.18;;
12880;SDS011;6508;53.786;9.996;2023-08-06T04:53:23;5.95;;;4.28;;
12880;SDS011;6508;53.786;9.996;2023-08-06T04:55:50;5.57;;;4.47;;
12880;SDS011;6508;53.786;9.996;2023-08-06T04:58:18;4.60;;;4.18;;
12880;SDS011;6508;53.786;9.996;2023-08-06T05:00:48;4.95;;;4.55;;
12880;SDS011;6508;53.786;9.996;2023-08-06T05:03:15;6.72;;;4.40;;
12880;SDS011;6508;53.786;9.996;2023-08-06T05:05:43;5.43;;;4.85;;
12880;SDS011;6508;53.786;9.996;2023-08-06T05:08:13;6.50;;;4.93;;
12880;SDS011;6508;53.786;9.996;2023-08-06T05:10:42;4.80;;;4.30;;
12880;SDS011;6508;53.786;9.996;2023-08-06T05:13:11;5.60;;;4.60;;
12880;SDS011;6508;53.786;9.996;2023-08-06T05:15:38;5.47;;;4.97;;
12880;SDS011;6508;53.786;9.996;2023-08-06T05:18:10;5.53;;;4.55;;
12880;SDS011;6508;53.786;9.996;2023-08-06T05:20:38;4.97;;;4.47;;
12880;SDS011;6508;53.786;9.996;2023-08-06T05:23:06;4.95;;;4.55;;
12880;SDS011;6508;53.786;9.996;2023-08-06T05:25:34;7.18;;;4.18;;
12880;SDS011;6508;53.786;9.996;2023-08-06T05:28:01;5.38;;;4.88;;
12880;SDS011;6508;53.786;9.996;2023-08-06T05:30:29;8.40;;;5.03;;
12880;SDS011;6508;53.786;9.996;2023-08-06T05:32:58;5.20;;;4.80;;
12880;SDS011;6508;53.786;9.996;2023-08-06T05:35:28;5.05;;;4.57;;
12880;SDS011;6508;53.786;9.996;2023-08-06T05:37:55;8.10;;;4.32;;
12880;SDS011;6508;53.786;9.996;2023-08-06T05:40:23;5.85;;;4.40;;
12880;SDS011;6508;53.786;9.996;2023-08-06T05:42:52;6.60;;;4.45;;
12880;SDS011;6508;53.786;9.996;2023-08-06T05:45:20;6.47;;;5.18;;
12880;SDS011;6508;53.786;9.996;2023-08-06T05:47:48;7.03;;;4.30;;
12880;SDS011;6508;53.786;9.996;2023-08-06T05:50:16;5.38;;;4.88;;
12880;SDS011;6508;53.786;9.996;2023-08-06T05:52:45;5.70;;;5.13;;
12880;SDS011;6508;53.786;9.996;2023-08-06T05:55:13;5.65;;;5.13;;
12880;SDS011;6508;53.786;9.996;2023-08-06T05:57:40;6.55;;;5.30;;
12880;SDS011;6508;53.786;9.996;2023-08-06T06:00:09;5.85;;;5.22;;
12880;SDS011;6508;53.786;9.996;2023-08-06T06:02:39;12.35;;;5.25;;
12880;SDS011;6508;53.786;9.996;2023-08-06T06:05:07;5.97;;;5.45;;
12880;SDS011;6508;53.786;9.996;2023-08-06T06:07:35;7.55;;;5.40;;
12880;SDS011;6508;53.786;9.996;2023-08-06T06:10:05;5.60;;;5.07;;
12880;SDS011;6508;53.786;9.996;2023-08-06T06:12:33;6.35;;;5.78;;
12880;SDS011;6508;53.786;9.996;2023-08-06T06:15:00;5.93;;;5.43;;
12880;SDS011;6508;53.786;9.996;2023-08-06T06:17:30;6.40;;;5.80;;
12880;SDS011;6508;53.786;9.996;2023-08-06T06:19:57;8.48;;;5.20;;
12880;SDS011;6508;53.786;9.996;2023-08-06T06:22:25;6.00;;;5.50;;
12880;SDS011;6508;53.786;9.996;2023-08-06T06:24:53;7.07;;;5.13;;
12880;SDS011;6508;53.786;9.996;2023-08-06T06:27:22;6.32;;;5.30;;
12880;SDS011;6508;53.786;9.996;2023-08-06T06:29:50;6.00;;;5.28;;
12880;SDS011;6508;53.786;9.996;2023-08-06T06:32:19;7.88;;;5.63;;
12880;SDS011;6508;53.786;9.996;2023-08-06T06:34:46;6.18;;;5.57;;
12880;SDS011;6508;53.786;9.996;2023-08-06T06:37:14;7.72;;;5.80;;
12880;SDS011;6508;53.786;9.996;2023-08-06T06:39:42;6.80;;;4.97;;
12880;SDS011;6508;53.786;9.996;2023-08-06T06:42:10;5.93;;;5.38;;
12880;SDS011;6508;53.786;9.996;2023-08-06T06:44:44;7.07;;;5.30;;
12880;SDS011;6508;53.786;9.996;2023-08-06T06:47:12;10.57;;;6.20;;
12880;SDS011;6508;53.786;9.996;2023-08-06T06:49:40;9.38;;;6.07;;
12880;SDS011;6508;53.786;9.996;2023-08-06T06:52:07;7.32;;;5.93;;
12880;SDS011;6508;53.786;9.996;2023-08-06T06:54:36;6.93;;;6.15;;
12880;SDS011;6508;53.786;9.996;2023-08-06T06:57:03;7.05;;;6.30;;
12880;SDS011;6508;53.786;9.996;2023-08-06T06:59:32;7.35;;;6.07;;
12880;SDS011;6508;53.786;9.996;2023-08-06T07:02:02;7.35;;;5.97;;
12880;SDS011;6508;53.786;9.996;2023-08-06T07:04:29;7.20;;;6.05;;
12880;SDS011;6508;53.786;9.996;2023-08-06T07:06:57;7.05;;;5.82;;
12880;SDS011;6508;53.786;9.996;2023-08-06T07:09:25;7.78;;;6.20;;
12880;SDS011;6508;53.786;9.996;2023-08-06T07:11:53;10.52;;;6.55;;
12880;SDS011;6508;53.786;9.996;2023-08-06T07:14:22;9.93;;;6.85;;
12880;SDS011;6508;53.786;9.996;2023-08-06T07:16:50;8.38;;;6.15;;
12880;SDS011;6508;53.786;9.996;2023-08-06T07:19:19;7.25;;;6.53;;
12880;SDS011;6508;53.786;9.996;2023-08-06T07:21:47;7.10;;;6.40;;
12880;SDS011;6508;53.786;9.996;2023-08-06T07:24:14;8.57;;;6.13;;
12880;SDS011;6508;53.786;9.996;2023-08-06T07:26:42;7.82;;;5.85;;
12880;SDS011;6508;53.786;9.996;2023-08-06T07:29:10;6.65;;;5.72;;
12880;SDS011;6508;53.786;9.996;2023-08-06T07:31:38;9.13;;;5.95;;
12880;SDS011;6508;53.786;9.996;2023-08-06T07:34:05;6.75;;;5.53;;
12880;SDS011;6508;53.786;9.996;2023-08-06T07:36:35;9.70;;;6.30;;
12880;SDS011;6508;53.786;9.996;2023-08-06T07:39:02;8.05;;;6.53;;
12880;SDS011;6508;53.786;9.996;2023-08-06T07:41:33;7.35;;;6.55;;
12880;SDS011;6508;53.786;9.996;2023-08-06T07:44:02;7.85;;;6.75;;
12880;SDS011;6508;53.786;9.996;2023-08-06T07:46:30;7.68;;;6.55;;
12880;SDS011;6508;53.786;9.996;2023-08-06T07:48:58;8.05;;;7.25;;
12880;SDS011;6508;53.786;9.996;2023-08-06T07:51:26;9.82;;;6.90;;
12880;SDS011;6508;53.786;9.996;2023-08-06T07:53:55;9.77;;;6.68;;
12880;SDS011;6508;53.786;9.996;2023-08-06T07:56:23;7.07;;;6.43;;
12880;SDS011;6508;53.786;9.996;2023-08-06T07:58:50;7.53;;;6.72;;
12880;SDS011;6508;53.786;9.996;2023-08-06T08:01:18;7.78;;;7.07;;
12880;SDS011;6508;53.786;9.996;2023-08-06T08:03:46;11.05;;;7.00;;
12880;SDS011;6508;53.786;9.996;2023-08-06T08:06:13;7.50;;;6.80;;
12880;SDS011;6508;53.786;9.996;2023-08-06T08:08:41;11.07;;;7.55;;
12880;SDS011;6508;53.786;9.996;2023-08-06T08:11:11;11.07;;;7.22;;
12880;SDS011;6508;53.786;9.996;2023-08-06T08:13:38;8.07;;;7.05;;
12880;SDS011;6508;53.786;9.996;2023-08-06T08:16:06;7.88;;;7.07;;
12880;SDS011;6508;53.786;9.996;2023-08-06T08:18:34;8.25;;;7.07;;
12880;SDS011;6508;53.786;9.996;2023-08-06T08:21:02;7.95;;;7.18;;
12880;SDS011;6508;53.786;9.996;2023-08-06T08:23:30;10.38;;;7.38;;
12880;SDS011;6508;53.786;9.996;2023-08-06T08:25:59;9.60;;;7.70;;
12880;SDS011;6508;53.786;9.996;2023-08-06T08:28:30;8.57;;;7.47;;
12880;SDS011;6508;53.786;9.996;2023-08-06T08:30:57;12.90;;;8.30;;
12880;SDS011;6508;53.786;9.996;2023-08-06T08:33:25;9.48;;;8.48;;
12880;SDS011;6508;53.786;9.996;2023-08-06T08:35:53;8.88;;;7.95;;
12880;SDS011;6508;53.786;9.996;2023-08-06T08:38:21;10.88;;;8.68;;
12880;SDS011;6508;53.786;9.996;2023-08-06T08:40:50;9.70;;;7.75;;
12880;SDS011;6508;53.786;9.996;2023-08-06T08:43:20;11.07;;;8.38;;
12880;SDS011;6508;53.786;9.996;2023-08-06T08:45:50;9.35;;;8.43;;
12880;SDS011;6508;53.786;9.996;2023-08-06T08:48:19;10.50;;;8.35;;
12880;SDS011;6508;53.786;9.996;2023-08-06T08:50:48;9.13;;;8.23;;
12880;SDS011;6508;53.786;9.996;2023-08-06T08:53:16;11.27;;;8.75;;
12880;SDS011;6508;53.786;9.996;2023-08-06T08:55:46;9.80;;;8.40;;
12880;SDS011;6508;53.786;9.996;2023-08-06T08:58:15;10.85;;;8.18;;
12880;SDS011;6508;53.786;9.996;2023-08-06T09:00:43;11.52;;;7.95;;
12880;SDS011;6508;53.786;9.996;2023-08-06T09:03:14;11.75;;;7.88;;
12880;SDS011;6508;53.786;9.996;2023-08-06T09:05:43;8.70;;;7.90;;
12880;SDS011;6508;53.786;9.996;2023-08-06T09:08:12;8.68;;;7.60;;
12880;SDS011;6508;53.786;9.996;2023-08-06T09:10:43;8.27;;;7.45;;
12880;SDS011;6508;53.786;9.996;2023-08-06T09:13:10;8.35;;;7.55;;
12880;SDS011;6508;53.786;9.996;2023-08-06T09:15:38;9.30;;;7.80;;
12880;SDS011;6508;53.786;9.996;2023-08-06T09:18:09;9.60;;;8.27;;
12880;SDS011;6508;53.786;9.996;2023-08-06T09:20:39;7.85;;;7.25;;
12880;SDS011;6508;53.786;9.996;2023-08-06T09:23:07;9.18;;;7.13;;
12880;SDS011;6508;53.786;9.996;2023-08-06T09:25:37;8.02;;;7.22;;
12880;SDS011;6508;53.786;9.996;2023-08-06T09:28:05;8.02;;;7.32;;
12880;SDS011;6508;53.786;9.996;2023-08-06T09:30:34;7.80;;;7.05;;
12880;SDS011;6508;53.786;9.996;2023-08-06T09:33:02;9.18;;;7.07;;
12880;SDS011;6508;53.786;9.996;2023-08-06T09:35:30;8.65;;;6.70;;
12880;SDS011;6508;53.786;9.996;2023-08-06T09:38:06;7.40;;;6.70;;
12880;SDS011;6508;53.786;9.996;2023-08-06T09:40:34;7.05;;;6.35;;
12880;SDS011;6508;53.786;9.996;2023-08-06T09:43:02;6.88;;;6.15;;
12880;SDS011;6508;53.786;9.996;2023-08-06T09:45:33;7.72;;;6.97;;
12880;SDS011;6508;53.786;9.996;2023-08-06T09:48:02;6.95;;;6.40;;
12880;SDS011;6508;53.786;9.996;2023-08-06T09:50:32;7.57;;;6.88;;
12880;SDS011;6508;53.786;9.996;2023-08-06T09:53:00;8.95;;;6.40;;
12880;SDS011;6508;53.786;9.996;2023-08-06T09:55:29;6.63;;;6.13;;
12880;SDS011;6508;53.786;9.996;2023-08-06T09:57:57;9.00;;;7.07;;
12880;SDS011;6508;53.786;9.996;2023-08-06T10:00:25;8.13;;;7.32;;
12880;SDS011;6508;53.786;9.996;2023-08-06T10:02:54;8.10;;;7.30;;
12880;SDS011;6508;53.786;9.996;2023-08-06T10:05:22;7.63;;;7.03;;
12880;SDS011;6508;53.786;9.996;2023-08-06T10:07:51;8.68;;;7.03;;
12880;SDS011;6508;53.786;9.996;2023-08-06T10:10:19;9.75;;;7.57;;
12880;SDS011;6508;53.786;9.996;2023-08-06T10:12:49;8.23;;;7.40;;
12880;SDS011;6508;53.786;9.996;2023-08-06T10:15:19;12.82;;;7.15;;
12880;SDS011;6508;53.786;9.996;2023-08-06T10:17:47;10.23;;;7.63;;
12880;SDS011;6508;53.786;9.996;2023-08-06T10:20:18;8.20;;;7.40;;
12880;SDS011;6508;53.786;9.996;2023-08-06T10:22:49;13.77;;;7.70;;
12880;SDS011;6508;53.786;9.996;2023-08-06T10:25:29;8.15;;;7.32;;
12880;SDS011;6508;53.786;9.996;2023-08-06T10:27:59;8.23;;;6.68;;
12880;SDS011;6508;53.786;9.996;2023-08-06T10:30:28;7.93;;;6.63;;
12880;SDS011;6508;53.786;9.996;2023-08-06T10:32:57;7.97;;;6.93;;
12880;SDS011;6508;53.786;9.996;2023-08-06T10:35:27;9.57;;;6.95;;
12880;SDS011;6508;53.786;9.996;2023-08-06T10:37:59;11.02;;;7.35;;
12880;SDS011;6508;53.786;9.996;2023-08-06T10:40:30;7.97;;;7.18;;
12880;SDS011;6508;53.786;9.996;2023-08-06T10:43:00;10.57;;;7.38;;
12880;SDS011;6508;53.786;9.996;2023-08-06T10:45:28;9.90;;;7.68;;
12880;SDS011;6508;53.786;9.996;2023-08-06T10:47:57;8.93;;;7.20;;
12880;SDS011;6508;53.786;9.996;2023-08-06T10:50:25;8.10;;;7.32;;
12880;SDS011;6508;53.786;9.996;2023-08-06T10:52:52;9.20;;;8.18;;
12880;SDS011;6508;53.786;9.996;2023-08-06T10:55:24;10.52;;;8.30;;
12880;SDS011;6508;53.786;9.996;2023-08-06T10:57:52;9.90;;;8.27;;
12880;SDS011;6508;53.786;9.996;2023-08-06T11:00:21;9.43;;;8.38;;
12880;SDS011;6508;53.786;9.996;2023-08-06T11:02:51;8.95;;;8.00;;
12880;SDS011;6508;53.786;9.996;2023-08-06T11:05:19;9.05;;;7.55;;
12880;SDS011;6508;53.786;9.996;2023-08-06T11:07:46;8.63;;;7.45;;
12880;SDS011;6508;53.786;9.996;2023-08-06T11:10:16;10.43;;;8.93;;
12880;SDS011;6508;53.786;9.996;2023-08-06T11:12:44;10.13;;;8.05;;
12880;SDS011;6508;53.786;9.996;2023-08-06T11:15:13;10.35;;;8.45;;
12880;SDS011;6508;53.786;9.996;2023-08-06T11:17:42;9.02;;;7.93;;
12880;SDS011;6508;53.786;9.996;2023-08-06T11:20:10;8.45;;;7.65;;
12880;SDS011;6508;53.786;9.996;2023-08-06T11:22:41;11.98;;;8.55;;
12880;SDS011;6508;53.786;9.996;2023-08-06T11:25:09;9.45;;;7.70;;
12880;SDS011;6508;53.786;9.996;2023-08-06T11:27:37;8.98;;;8.15;;
12880;SDS011;6508;53.786;9.996;2023-08-06T11:30:05;13.02;;;8.30;;
12880;SDS011;6508;53.786;9.996;2023-08-06T11:32:46;9.35;;;7.80;;
12880;SDS011;6508;53.786;9.996;2023-08-06T11:35:14;9.77;;;7.93;;
12880;SDS011;6508;53.786;9.996;2023-08-06T11:37:43;8.40;;;7.28;;
12880;SDS011;6508;53.786;9.996;2023-08-06T11:40:11;9.05;;;8.15;;
12880;SDS011;6508;53.786;9.996;2023-08-06T11:42:39;8.38;;;7.60;;
12880;SDS011;6508;53.786;9.996;2023-08-06T11:45:07;9.57;;;8.23;;
12880;SDS011;6508;53.786;9.996;2023-08-06T11:47:38;10.70;;;8.10;;
12880;SDS011;6508;53.786;9.996;2023-08-06T11:50:08;9.77;;;7.90;;
12880;SDS011;6508;53.786;9.996;2023-08-06T11:52:38;11.82;;;8.43;;
12880;SDS011;6508;53.786;9.996;2023-08-06T11:55:07;9.75;;;7.78;;
12880;SDS011;6508;53.786;9.996;2023-08-06T11:57:37;10.30;;;7.75;;
12880;SDS011;6508;53.786;9.996;2023-08-06T12:00:06;9.18;;;7.38;;
12880;SDS011;6508;53.786;9.996;2023-08-06T12:02:38;8.68;;;7.85;;
12880;SDS011;6508;53.786;9.996;2023-08-06T12:05:13;8.52;;;7.63;;
12880;SDS011;6508;53.786;9.996;2023-08-06T12:07:41;9.75;;;8.63;;
12880;SDS011;6508;53.786;9.996;2023-08-06T12:10:09;7.43;;;6.63;;
12880;SDS011;6508;53.786;9.996;2023-08-06T12:12:37;8.02;;;7.30;;
12880;SDS011;6508;53.786;9.996;2023-08-06T12:15:05;10.05;;;7.13;;
12880;SDS011;6508;53.786;9.996;2023-08-06T12:17:34;8.07;;;6.80;;
12880;SDS011;6508;53.786;9.996;2023-08-06T12:20:02;7.78;;;6.68;;
12880;SDS011;6508;53.786;9.996;2023-08-06T12:22:32;7.68;;;6.97;;
12880;SDS011;6508;53.786;9.996;2023-08-06T12:25:02;8.05;;;7.25;;
12880;SDS011;6508;53.786;9.996;2023-08-06T12:27:30;7.38;;;6.13;;
12880;SDS011;6508;53.786;9.996;2023-08-06T12:29:57;6.10;;;5.57;;
12880;SDS011;6508;53.786;9.996;2023-08-06T12:32:25;4.95;;;4.45;;
12880;SDS011;6508;53.786;9.996;2023-08-06T12:34:54;6.22;;;4.47;;
12880;SDS011;6508;53.786;9.996;2023-08-06T12:37:22;6.55;;;4.95;;
12880;SDS011;6508;53.786;9.996;2023-08-06T12:39:51;6.22;;;4.70;;
12880;SDS011;6508;53.786;9.996;2023-08-06T12:42:19;4.95;;;4.57;;
12880;SDS011;6508;53.786;9.996;2023-08-06T12:44:47;5.07;;;4.20;;
12880;SDS011;6508;53.786;9.996;2023-08-06T12:47:15;7.15;;;4.30;;
12880;SDS011;6508;53.786;9.996;2023-08-06T12:49:43;3.38;;;3.08;;
12880;SDS011;6508;53.786;9.996;2023-08-06T12:52:11;3.00;;;2.80;;
12880;SDS011;6508;53.786;9.996;2023-08-06T12:54:41;3.45;;;3.22;;
12880;SDS011;6508;53.786;9.996;2023-08-06T12:57:11;5.57;;;3.17;;
12880;SDS011;6508;53.786;9.996;2023-08-06T12:59:38;4.15;;;3.50;;
12880;SDS011;6508;53.786;9.996;2023-08-06T13:02:06;3.58;;;3.28;;
12880;SDS011;6508;53.786;9.996;2023-08-06T13:04:35;3.90;;;3.60;;
12880;SDS011;6508;53.786;9.996;2023-08-06T13:07:03;3.90;;;3.60;;
12880;SDS011;6508;53.786;9.996;2023-08-06T13:09:32;4.10;;;3.72;;
12880;SDS011;6508;53.786;9.996;2023-08-06T13:12:00;4.07;;;3.50;;
12880;SDS011;6508;53.786;9.996;2023-08-06T13:14:33;4.13;;;3.75;;
12880;SDS011;6508;53.786;9.996;2023-08-06T13:17:01;3.58;;;3.33;;
12880;SDS011;6508;53.786;9.996;2023-08-06T13:19:32;5.43;;;3.70;;
12880;SDS011;6508;53.786;9.996;2023-08-06T13:22:01;3.92;;;3.50;;
12880;SDS011;6508;53.786;9.996;2023-08-06T13:24:30;4.20;;;3.90;;
12880;SDS011;6508;53.786;9.996;2023-08-06T13:26:57;3.97;;;3.63;;
12880;SDS011;6508;53.786;9.996;2023-08-06T13:29:26;4.45;;;4.07;;
12880;SDS011;6508;53.786;9.996;2023-08-06T13:31:56;4.72;;;4.10;;
12880;SDS011;6508;53.786;9.996;2023-08-06T13:34:25;4.70;;;4.28;;
12880;SDS011;6508;53.786;9.996;2023-08-06T13:36:52;5.25;;;4.25;;
12880;SDS011;6508;53.786;9.996;2023-08-06T13:39:21;5.80;;;3.85;;
12880;SDS011;6508;53.786;9.996;2023-08-06T13:41:49;5.63;;;4.18;;
12880;SDS011;6508;53.786;9.996;2023-08-06T13:44:17;3.83;;;3.53;;
12880;SDS011;6508;53.786;9.996;2023-08-06T13:46:44;4.15;;;3.80;;
12880;SDS011;6508;53.786;9.996;2023-08-06T13:49:13;3.83;;;3.53;;
12880;SDS011;6508;53.786;9.996;2023-08-06T13:51:41;3.92;;;3.63;;
12880;SDS011;6508;53.786;9.996;2023-08-06T13:54:10;3.92;;;3.63;;
12880;SDS011;6508;53.786;9.996;2023-08-06T13:56:38;4.45;;;4.05;;
12880;SDS011;6508;53.786;9.996;2023-08-06T13:59:06;4.68;;;3.50;;
12880;SDS011;6508;53.786;9.996;2023-08-06T14:01:34;5.78;;;4.75;;
12880;SDS011;6508;53.786;9.996;2023-08-06T14:04:18;4.55;;;3.90;;
12880;SDS011;6508;53.786;9.996;2023-08-06T14:06:47;4.85;;;4.20;;
12880;SDS011;6508;53.786;9.996;2023-08-06T14:09:15;4.18;;;3.70;;
12880;SDS011;6508;53.786;9.996;2023-08-06T14:11:45;3.72;;;3.53;;
12880;SDS011;6508;53.786;9.996;2023-08-06T14:14:12;4.35;;;3.95;;
12880;SDS011;6508;53.786;9.996;2023-08-06T14:16:40;4.13;;;3.72;;
12880;SDS011;6508;53.786;9.996;2023-08-06T14:19:08;5.47;;;4.05;;
12880;SDS011;6508;53.786;9.996;2023-08-06T14:21:37;4.03;;;3.72;;
12880;SDS011;6508;53.786;9.996;2023-08-06T14:24:06;5.05;;;4.55;;
12880;SDS011;6508;53.786;9.996;2023-08-06T14:26:34;6.10;;;4.30;;
12880;SDS011;6508;53.786;9.996;2023-08-06T14:29:02;4.22;;;3.83;;
12880;SDS011;6508;53.786;9.996;2023-08-06T14:31:29;4.50;;;4.20;;
12880;SDS011;6508;53.786;9.996;2023-08-06T14:33:58;4.55;;;4.25;;
12880;SDS011;6508;53.786;9.996;2023-08-06T14:36:25;4.97;;;4.47;;
12880;SDS011;6508;53.786;9.996;2023-08-06T14:38:54;5.18;;;4.68;;
12880;SDS011;6508;53.786;9.996;2023-08-06T14:41:26;4.82;;;4.30;;
12880;SDS011;6508;53.786;9.996;2023-08-06T14:43:54;5.35;;;4.22;;
12880;SDS011;6508;53.786;9.996;2023-08-06T14:46:21;6.10;;;4.70;;
12880;SDS011;6508;53.786;9.996;2023-08-06T14:48:49;7.28;;;4.65;;
12880;SDS011;6508;53.786;9.996;2023-08-06T14:51:17;5.10;;;4.28;;
12880;SDS011;6508;53.786;9.996;2023-08-06T14:53:46;4.93;;;4.53;;
12880;SDS011;6508;53.786;9.996;2023-08-06T14:56:15;4.80;;;4.40;;
12880;SDS011;6508;53.786;9.996;2023-08-06T14:58:44;5.15;;;4.68;;
12880;SDS011;6508;53.786;9.996;2023-08-06T15:01:12;8.27;;;7.40;;
12880;SDS011;6508;53.786;9.996;2023-08-06T15:03:40;4.38;;;3.97;;
12880;SDS011;6508;53.786;9.996;2023-08-06T15:06:07;5.07;;;4.60;;
12880;SDS011;6508;53.786;9.996;2023-08-06T15:08:35;5.28;;;4.68;;